| Date | Time | Temp. (oF) | Dew Point (oF) | Rel. Hum. (%) | Press. (in.) | Wind Dir. | Wind Speed (mph) | Hourly Rainfall (in.) |
|
|---|---|---|---|---|---|---|---|---|---|
| 1 | 12/22 | 00:00 | 35 | 28 | 76 | 29.47 | SSW | 5 | 0.00 |
| 2 | 12/21 | 23:00 | 34 | 30 | 86 | 29.48 | WSW | 9 | 0.00 |
| 3 | 12/21 | 22:00 | 35 | 29 | 79 | 29.46 | SW | 7 | 0.00 |
| 4 | 12/21 | 21:00 | 35 | 29 | 80 | 29.43 | SSW | 11 | 0.00 |
| 5 | 12/21 | 20:00 | 36 | 29 | 78 | 29.43 | WSW | 6 | 0.00 |
| 6 | 12/21 | 19:00 | 36 | 29 | 76 | 29.42 | WSW | 4 | 0.00 |
| 7 | 12/21 | 18:00 | 36 | 28 | 75 | 29.41 | SSW | 13 | 0.00 |
| 8 | 12/21 | 17:00 | 35 | 28 | 78 | 29.39 | SSW | 18 | 0.00 |
| 9 | 12/21 | 16:00 | 37 | 29 | 74 | 29.38 | S | 14 | 0.00 |
| 10 | 12/21 | 15:00 | 37 | 28 | 72 | 29.36 | SW | 10 | 0.00 |
| 11 | 12/21 | 14:00 | 37 | 28 | 72 | 29.35 | SW | 8 | 0.00 |
| 12 | 12/21 | 13:00 | 38 | 29 | 72 | 29.34 | SSW | 16 | 0.00 |
| 13 | 12/21 | 12:00 | 38 | 30 | 75 | 29.35 | WSW | 7 | 0.00 |
| 14 | 12/21 | 11:00 | 38 | 29 | 72 | 29.36 | WSW | 9 | 0.00 |
| 15 | 12/21 | 10:00 | 39 | 32 | 76 | 29.35 | WSW | 6 | 0.00 |
| 16 | 12/21 | 09:00 | 40 | 34 | 79 | 29.33 | WSW | 10 | 0.00 |
| 17 | 12/21 | 08:00 | 41 | 38 | 91 | 29.31 | SW | 6 | 0.00 |
| 18 | 12/21 | 07:00 | 42 | 40 | 93 | 29.30 | WSW | 9 | 0.00 |
| 19 | 12/21 | 06:00 | 43 | 42 | 97 | 29.30 | N | 10 | 0.00 |
| 20 | 12/21 | 05:00 | 47 | 46 | 100 | 29.27 | WSW | 12 | 0.24 |
| 21 | 12/21 | 04:00 | 52 | 51 | 100 | 29.27 | SW | 7 | 0.25 |
| 22 | 12/21 | 03:00 | 52 | 51 | 100 | 29.26 | E | 16 | 0.17 |
| 23 | 12/21 | 02:00 | 50 | 50 | 100 | 29.35 | ESE | 12 | 0.14 |
| 24 | 12/21 | 01:00 | 47 | 46 | 100 | 29.44 | E | 8 | 0.14 |